Airfield :
LOGIN :

Register | Disclaimer

   EN    FR    IT 

 










Legend :    VFR   Marginal VFR   IFR   Intensive IFR   Very Intensive IFR
Visi :
Ceiling :
>= 8 km
>= 3000ft
5 to 8 km
1000 to 3000 ft
1500m to 5 km
500 to 1000 ft
800 to 1500m
200 to 500 ft
< 800m
< 200 ft
Symbols :   Thunderstorms  Fog  Heavy snow  Heavy precipitations  Wind > 20 kt
SIGMETs :     Misc.  Thunderstorms  Icing  Turbulence  Mountain Waves  Volcanic Ashes







- Airport Elevation : 242 ft
- IATA code : DUB


EIDW - Dublin

CURRENT METAR :
  • 231430Z 27011KT 9999 FEW022 SCT024 BKN030 18/13 Q1021 WS RWY28 NOSIG

EXPIRED METARs :
  • 231400Z 26013KT 9999 FEW022 BKN025 BKN027 18/12 Q1021 WS RWY28 NOSIG
  • 231330Z 26013KT 9999 FEW022 SCT027 BKN036 18/12 Q1020 WS RWY28 NOSIG
  • 231300Z 24011KT 9999 FEW025 SCT032 BKN037 19/12 Q1020 NOSIG
  • 231230Z 24010KT 190V280 9999 BKN033 19/12 Q1020 NOSIG
  • 231200Z 25009KT 200V290 9999 BKN030 19/11 Q1020 NOSIG

TAF TAF EIDW
Valid from the 23 at 12:00 until the 24 at 12:00 UTC


231100Z 2312/2412 26011KT 9999 SCT018 BKN025
BECMG 2321/2324 27006KT
BECMG 2403/2406 24005KT
BECMG 2410/2412 VRB03KT
No reported NOTAMs for that airfield.



MET'MAP, your aeronautical weather chart ! - Copyright ORBIFLY December 2007 - Disclaimer

ORBIFLY MET'MAP TEAM :

Programming & Development : Alexandra Zaïnal
Concept & Development : Baudouin d'Aumeries
Co-Development & Prog : Marc-Olivier Méhu
Technical & hardware support : Manuel Goepfert

Contact : metmap@orbifly.com




SOURCES & CREDITS :

   NOAA